WZZ134 EPWA-LGSK
Flight info
| Callsign | WZZ134 |
|---|---|
| Flight time | 2h 16m |
| Altitude | 38000 |
| Route | EVINA M66 BABKO/N0430F390 DCT PARAK DCT IBISI DCT MAKED |
| Aircraft | A20N/M-SDE2E3FGHIRWXY/LB1 |
Departure
| Time | 2026-05-07 00:59 |
|---|---|
| Airport | Warsaw Chopin Airport (EPWA) |
Arrival
| Time | 2026-05-07 03:15 |
|---|---|
| Airport | Skiathos Island National Airport (LGSK) |
| Time | Latitude | Longitude | Altitude | Speed | Heading |
|---|---|---|---|---|---|
| 2026-05-07 00:06 | 52.17741 | 20.96641 | 332 ft | 0 kts | 328° |
| 2026-05-07 00:48 | 52.17724 | 20.96660 | 333 ft | 4 kts | 324° |
| 2026-05-07 00:48 | 52.17701 | 20.96685 | 333 ft | 4 kts | 327° |
| 2026-05-07 00:48 | 52.17679 | 20.96708 | 331 ft | 4 kts | 327° |
| 2026-05-07 00:49 | 52.17656 | 20.96732 | 331 ft | 4 kts | 328° |
| 2026-05-07 00:49 | 52.17633 | 20.96755 | 331 ft | 4 kts | 326° |
| 2026-05-07 00:49 | 52.17612 | 20.96781 | 331 ft | 4 kts | 312° |
| 2026-05-07 00:49 | 52.17600 | 20.96816 | 335 ft | 4 kts | 268° |
| 2026-05-07 00:50 | 52.17603 | 20.96843 | 333 ft | 1 kts | 242° |
| 2026-05-07 00:50 | 52.17605 | 20.96847 | 334 ft | 0 kts | 242° |
| 2026-05-07 00:53 | 52.17604 | 20.96846 | 336 ft | 1 kts | 242° |
| 2026-05-07 00:53 | 52.17582 | 20.96786 | 336 ft | 11 kts | 239° |
| 2026-05-07 00:53 | 52.17542 | 20.96675 | 335 ft | 11 kts | 239° |
| 2026-05-07 00:53 | 52.17501 | 20.96579 | 336 ft | 9 kts | 227° |
| 2026-05-07 00:54 | 52.17461 | 20.96489 | 334 ft | 12 kts | 242° |
| 2026-05-07 00:54 | 52.17439 | 20.96367 | 333 ft | 11 kts | 287° |
| 2026-05-07 00:54 | 52.17491 | 20.96309 | 334 ft | 9 kts | 334° |
| 2026-05-07 00:54 | 52.17561 | 20.96249 | 335 ft | 14 kts | 332° |
| 2026-05-07 00:55 | 52.17655 | 20.96166 | 334 ft | 17 kts | 331° |
| 2026-05-07 00:55 | 52.17765 | 20.96067 | 332 ft | 19 kts | 327° |
| 2026-05-07 00:55 | 52.17850 | 20.95902 | 332 ft | 18 kts | 303° |
| 2026-05-07 00:55 | 52.17894 | 20.95734 | 335 ft | 9 kts | 256° |
| 2026-05-07 00:56 | 52.17890 | 20.95720 | 336 ft | 0 kts | 246° |
| 2026-05-07 00:56 | 52.17883 | 20.95697 | 334 ft | 7 kts | 243° |
| 2026-05-07 00:57 | 52.17828 | 20.95622 | 336 ft | 12 kts | 184° |
| 2026-05-07 00:57 | 52.17761 | 20.95673 | 338 ft | 0 kts | 153° |
| 2026-05-07 00:58 | 52.17686 | 20.95741 | 338 ft | 42 kts | 150° |
| 2026-05-07 00:58 | 52.17218 | 20.96146 | 333 ft | 108 kts | 152° |
| 2026-05-07 00:58 | 52.16407 | 20.96841 | 333 ft | 156 kts | 153° |
| 2026-05-07 00:58 | 52.15391 | 20.97769 | 736 ft | 161 kts | 150° |
| 2026-05-07 00:59 | 52.13458 | 20.99559 | 2069 ft | 160 kts | 152° |
| 2026-05-07 00:59 | 52.12441 | 21.00467 | 2644 ft | 177 kts | 153° |
| 2026-05-07 00:59 | 52.11299 | 21.01499 | 3292 ft | 195 kts | 153° |
| 2026-05-07 01:00 | 52.10148 | 21.02602 | 4539 ft | 170 kts | 153° |
| 2026-05-07 01:00 | 52.09233 | 21.03525 | 5801 ft | 161 kts | 161° |
| 2026-05-07 01:00 | 52.08059 | 21.03721 | 6102 ft | 180 kts | 198° |
| 2026-05-07 01:00 | 52.06989 | 21.02574 | 6725 ft | 192 kts | 230° |
| 2026-05-07 01:01 | 52.06416 | 21.00515 | 7217 ft | 214 kts | 250° |
| 2026-05-07 01:01 | 52.05962 | 20.98088 | 7650 ft | 234 kts | 243° |
| 2026-05-07 01:01 | 52.05170 | 20.95665 | 8141 ft | 250 kts | 232° |
| 2026-05-07 01:01 | 52.04118 | 20.93372 | 8991 ft | 255 kts | 232° |
| 2026-05-07 01:02 | 52.03190 | 20.90896 | 9892 ft | 259 kts | 239° |
| 2026-05-07 01:02 | 52.02466 | 20.88128 | 10452 ft | 277 kts | 244° |
| 2026-05-07 01:02 | 52.01723 | 20.85102 | 10742 ft | 300 kts | 245° |
| 2026-05-07 01:02 | 52.00923 | 20.81866 | 11212 ft | 314 kts | 245° |
| 2026-05-07 01:03 | 52.00108 | 20.78552 | 11993 ft | 318 kts | 245° |
| 2026-05-07 01:03 | 51.99292 | 20.75231 | 12748 ft | 323 kts | 245° |
| 2026-05-07 01:03 | 51.98454 | 20.71818 | 13530 ft | 328 kts | 246° |
| 2026-05-07 01:03 | 51.97603 | 20.68359 | 14250 ft | 332 kts | 246° |
| 2026-05-07 01:04 | 51.96742 | 20.64866 | 14968 ft | 335 kts | 246° |
| 2026-05-07 01:04 | 51.95849 | 20.61364 | 15680 ft | 337 kts | 241° |
| 2026-05-07 01:04 | 51.94497 | 20.58265 | 16354 ft | 339 kts | 224° |
| 2026-05-07 01:04 | 51.92594 | 20.55996 | 17043 ft | 343 kts | 207° |
| 2026-05-07 01:05 | 51.90355 | 20.54572 | 17679 ft | 349 kts | 201° |
| 2026-05-07 01:05 | 51.88056 | 20.53243 | 17790 ft | 351 kts | 201° |
| 2026-05-07 01:05 | 51.85761 | 20.51918 | 17774 ft | 351 kts | 201° |
| 2026-05-07 01:05 | 51.83439 | 20.50571 | 18115 ft | 355 kts | 201° |
| 2026-05-07 01:06 | 51.81129 | 20.49226 | 18829 ft | 354 kts | 201° |
| 2026-05-07 01:06 | 51.78804 | 20.47869 | 19451 ft | 356 kts | 202° |
| 2026-05-07 01:06 | 51.76462 | 20.46502 | 20052 ft | 359 kts | 202° |
| 2026-05-07 01:06 | 51.74106 | 20.45129 | 20658 ft | 361 kts | 202° |
| 2026-05-07 01:07 | 51.71759 | 20.43765 | 21247 ft | 364 kts | 202° |
| 2026-05-07 01:07 | 51.69338 | 20.42361 | 21837 ft | 367 kts | 202° |
| 2026-05-07 01:07 | 51.66920 | 20.40993 | 22426 ft | 370 kts | 200° |
| 2026-05-07 01:07 | 51.64437 | 20.39989 | 22995 ft | 375 kts | 193° |
| 2026-05-07 01:08 | 51.61832 | 20.39442 | 23527 ft | 380 kts | 188° |
| 2026-05-07 01:08 | 51.59187 | 20.39069 | 23990 ft | 383 kts | 188° |
| 2026-05-07 01:08 | 51.56525 | 20.38682 | 24466 ft | 385 kts | 189° |
| 2026-05-07 01:08 | 51.53851 | 20.38286 | 24924 ft | 387 kts | 189° |
| 2026-05-07 01:09 | 51.51158 | 20.37882 | 25354 ft | 390 kts | 189° |
| 2026-05-07 01:09 | 51.48434 | 20.37471 | 25813 ft | 393 kts | 189° |
| 2026-05-07 01:09 | 51.45705 | 20.37059 | 26233 ft | 395 kts | 189° |
| 2026-05-07 01:09 | 51.42959 | 20.36645 | 26655 ft | 397 kts | 189° |
| 2026-05-07 01:10 | 51.40200 | 20.36181 | 27062 ft | 399 kts | 192° |
| 2026-05-07 01:10 | 51.37474 | 20.35311 | 27444 ft | 399 kts | 198° |
| 2026-05-07 01:10 | 51.34816 | 20.33998 | 27826 ft | 400 kts | 201° |
| 2026-05-07 01:10 | 51.32194 | 20.32609 | 28201 ft | 403 kts | 201° |
| 2026-05-07 01:11 | 51.29519 | 20.31202 | 28557 ft | 405 kts | 200° |
| 2026-05-07 01:11 | 51.26822 | 20.29793 | 28904 ft | 408 kts | 200° |
| 2026-05-07 01:11 | 51.24113 | 20.28385 | 29246 ft | 410 kts | 200° |
| 2026-05-07 01:11 | 51.21386 | 20.26971 | 29579 ft | 413 kts | 200° |
| 2026-05-07 01:12 | 51.18652 | 20.25557 | 29908 ft | 415 kts | 200° |
| 2026-05-07 01:12 | 51.15894 | 20.24132 | 30204 ft | 417 kts | 200° |
| 2026-05-07 01:12 | 51.13121 | 20.22701 | 30516 ft | 419 kts | 200° |
| 2026-05-07 01:12 | 51.10377 | 20.21287 | 30808 ft | 421 kts | 200° |
| 2026-05-07 01:13 | 51.07588 | 20.19852 | 31166 ft | 421 kts | 200° |
| 2026-05-07 01:13 | 51.04804 | 20.18422 | 31573 ft | 420 kts | 200° |
| 2026-05-07 01:13 | 51.02026 | 20.16996 | 31974 ft | 418 kts | 201° |
| 2026-05-07 01:13 | 50.99257 | 20.15577 | 32373 ft | 417 kts | 201° |
| 2026-05-07 01:14 | 50.96499 | 20.14165 | 32761 ft | 416 kts | 201° |
| 2026-05-07 01:14 | 50.93737 | 20.12753 | 33132 ft | 415 kts | 201° |
| 2026-05-07 01:14 | 50.90991 | 20.11349 | 33502 ft | 414 kts | 201° |
| 2026-05-07 01:14 | 50.88248 | 20.09950 | 33852 ft | 413 kts | 201° |
| 2026-05-07 01:15 | 50.85509 | 20.08555 | 34134 ft | 413 kts | 201° |
| 2026-05-07 01:15 | 50.82778 | 20.07166 | 34402 ft | 412 kts | 201° |
| 2026-05-07 01:15 | 50.80041 | 20.05776 | 34660 ft | 412 kts | 201° |
| 2026-05-07 01:15 | 50.77349 | 20.04410 | 34910 ft | 412 kts | 201° |
| 2026-05-07 01:16 | 50.74618 | 20.03025 | 35151 ft | 412 kts | 201° |
| 2026-05-07 01:16 | 50.71888 | 20.01642 | 35397 ft | 412 kts | 201° |
| 2026-05-07 01:16 | 50.69154 | 20.00258 | 35628 ft | 411 kts | 201° |
| 2026-05-07 01:16 | 50.66428 | 19.98880 | 35851 ft | 411 kts | 201° |
| 2026-05-07 01:17 | 50.63703 | 19.97504 | 36073 ft | 411 kts | 200° |
| 2026-05-07 01:17 | 50.60975 | 19.96128 | 36279 ft | 411 kts | 200° |
| 2026-05-07 01:17 | 50.58252 | 19.94757 | 36476 ft | 411 kts | 200° |
| 2026-05-07 01:17 | 50.55529 | 19.93387 | 36686 ft | 411 kts | 200° |
| 2026-05-07 01:18 | 50.52808 | 19.92021 | 36885 ft | 411 kts | 200° |
| 2026-05-07 01:18 | 50.50085 | 19.90655 | 37086 ft | 411 kts | 200° |
| 2026-05-07 01:18 | 50.47361 | 19.89290 | 37270 ft | 410 kts | 200° |
| 2026-05-07 01:18 | 50.44641 | 19.87929 | 37444 ft | 410 kts | 200° |
| 2026-05-07 01:19 | 50.41914 | 19.86566 | 37623 ft | 410 kts | 200° |
| 2026-05-07 01:19 | 50.39200 | 19.85212 | 37797 ft | 410 kts | 200° |
| 2026-05-07 01:19 | 50.36518 | 19.83875 | 37814 ft | 410 kts | 200° |
| 2026-05-07 01:20 | 50.31087 | 19.81172 | 37816 ft | 409 kts | 200° |
| 2026-05-07 01:20 | 50.25649 | 19.78472 | 37820 ft | 410 kts | 200° |
| 2026-05-07 01:21 | 50.20203 | 19.75775 | 37825 ft | 410 kts | 200° |
| 2026-05-07 01:21 | 50.14752 | 19.73082 | 37833 ft | 410 kts | 200° |
| 2026-05-07 01:22 | 50.09341 | 19.70416 | 37826 ft | 410 kts | 200° |
| 2026-05-07 01:22 | 50.03889 | 19.67735 | 37814 ft | 411 kts | 200° |
| 2026-05-07 01:23 | 49.98436 | 19.65060 | 37813 ft | 411 kts | 200° |
| 2026-05-07 01:23 | 49.93902 | 19.62841 | 37806 ft | 411 kts | 200° |
| 2026-05-07 01:24 | 49.88444 | 19.60175 | 37808 ft | 411 kts | 200° |
| 2026-05-07 01:24 | 49.82979 | 19.57512 | 37812 ft | 412 kts | 200° |
| 2026-05-07 01:25 | 49.76612 | 19.54418 | 37822 ft | 413 kts | 200° |
| 2026-05-07 01:25 | 49.72054 | 19.52208 | 37831 ft | 413 kts | 200° |
| 2026-05-07 01:26 | 49.66573 | 19.49563 | 37845 ft | 413 kts | 199° |
| 2026-05-07 01:26 | 49.60901 | 19.47916 | 37846 ft | 417 kts | 188° |
| 2026-05-07 01:27 | 49.55073 | 19.48065 | 37834 ft | 422 kts | 177° |
| 2026-05-07 01:27 | 49.49239 | 19.49239 | 37828 ft | 421 kts | 177° |
| 2026-05-07 01:28 | 49.43479 | 19.50361 | 37843 ft | 419 kts | 177° |
| 2026-05-07 01:28 | 49.37687 | 19.51474 | 37843 ft | 419 kts | 177° |
| 2026-05-07 01:29 | 49.31888 | 19.52584 | 37854 ft | 420 kts | 177° |
| 2026-05-07 01:29 | 49.26077 | 19.53697 | 37860 ft | 420 kts | 177° |
| 2026-05-07 01:30 | 49.20268 | 19.54806 | 37862 ft | 421 kts | 177° |
| 2026-05-07 01:30 | 49.14444 | 19.55915 | 37873 ft | 422 kts | 177° |
| 2026-05-07 01:31 | 49.08618 | 19.57022 | 37877 ft | 422 kts | 177° |
| 2026-05-07 01:31 | 49.02781 | 19.58128 | 37882 ft | 423 kts | 177° |
| 2026-05-07 01:32 | 48.96975 | 19.59226 | 37890 ft | 423 kts | 177° |
| 2026-05-07 01:32 | 48.91131 | 19.60328 | 37897 ft | 424 kts | 177° |
| 2026-05-07 01:33 | 48.85281 | 19.61430 | 37899 ft | 423 kts | 177° |
| 2026-05-07 01:33 | 48.79419 | 19.62531 | 37906 ft | 424 kts | 177° |
| 2026-05-07 01:34 | 48.73553 | 19.63629 | 37906 ft | 425 kts | 177° |
| 2026-05-07 01:34 | 48.67678 | 19.64726 | 37910 ft | 425 kts | 177° |
| 2026-05-07 01:35 | 48.61797 | 19.65823 | 37913 ft | 426 kts | 177° |
| 2026-05-07 01:35 | 48.55945 | 19.66912 | 37910 ft | 426 kts | 176° |
| 2026-05-07 01:36 | 48.50049 | 19.68006 | 37911 ft | 427 kts | 176° |
| 2026-05-07 01:36 | 48.44137 | 19.69101 | 37911 ft | 427 kts | 176° |
| 2026-05-07 01:37 | 48.38259 | 19.70186 | 37908 ft | 428 kts | 176° |
| 2026-05-07 01:37 | 48.32347 | 19.71276 | 37903 ft | 428 kts | 176° |
| 2026-05-07 01:38 | 48.26417 | 19.72366 | 37912 ft | 429 kts | 176° |
| 2026-05-07 01:38 | 48.20488 | 19.73453 | 37924 ft | 429 kts | 176° |
| 2026-05-07 01:39 | 48.14585 | 19.74534 | 37922 ft | 429 kts | 176° |
| 2026-05-07 01:39 | 48.08648 | 19.75618 | 37925 ft | 430 kts | 176° |
| 2026-05-07 01:40 | 48.02708 | 19.76699 | 37926 ft | 430 kts | 176° |
| 2026-05-07 01:40 | 47.96759 | 19.77780 | 37921 ft | 430 kts | 176° |
| 2026-05-07 01:41 | 47.90842 | 19.78853 | 37921 ft | 431 kts | 176° |
| 2026-05-07 01:41 | 47.84880 | 19.79931 | 37926 ft | 431 kts | 176° |
| 2026-05-07 01:42 | 47.78901 | 19.81010 | 37926 ft | 432 kts | 176° |
| 2026-05-07 01:42 | 47.72925 | 19.82086 | 37925 ft | 433 kts | 176° |
| 2026-05-07 01:43 | 47.66940 | 19.83160 | 37928 ft | 433 kts | 176° |
| 2026-05-07 01:43 | 47.60980 | 19.84228 | 37928 ft | 434 kts | 176° |
| 2026-05-07 01:44 | 47.54979 | 19.85301 | 37924 ft | 434 kts | 176° |
| 2026-05-07 01:44 | 47.48975 | 19.86373 | 37925 ft | 435 kts | 176° |
| 2026-05-07 01:45 | 47.42946 | 19.87446 | 37927 ft | 436 kts | 176° |
| 2026-05-07 01:45 | 47.36918 | 19.88516 | 37929 ft | 436 kts | 176° |
| 2026-05-07 01:46 | 47.30877 | 19.89586 | 37936 ft | 437 kts | 176° |
| 2026-05-07 01:46 | 47.24828 | 19.90655 | 37938 ft | 438 kts | 176° |
| 2026-05-07 01:47 | 47.18807 | 19.91717 | 37943 ft | 438 kts | 176° |
| 2026-05-07 01:47 | 47.12745 | 19.92784 | 37946 ft | 439 kts | 176° |
| 2026-05-07 01:48 | 47.06693 | 19.93847 | 37937 ft | 436 kts | 176° |
| 2026-05-07 01:48 | 47.00664 | 19.94902 | 37937 ft | 437 kts | 176° |
| 2026-05-07 01:49 | 46.94640 | 19.95955 | 37938 ft | 436 kts | 176° |
| 2026-05-07 01:49 | 46.88600 | 19.97008 | 37937 ft | 436 kts | 176° |
| 2026-05-07 01:50 | 46.82602 | 19.98051 | 37941 ft | 436 kts | 176° |
| 2026-05-07 01:50 | 46.76574 | 19.99097 | 37942 ft | 436 kts | 177° |
| 2026-05-07 01:51 | 46.70548 | 20.00141 | 37945 ft | 436 kts | 177° |
| 2026-05-07 01:51 | 46.64528 | 20.01181 | 37945 ft | 436 kts | 177° |
| 2026-05-07 01:52 | 46.58540 | 20.02214 | 37950 ft | 435 kts | 177° |
| 2026-05-07 01:52 | 46.52522 | 20.03249 | 37954 ft | 435 kts | 177° |
| 2026-05-07 01:53 | 46.46490 | 20.04284 | 37951 ft | 435 kts | 177° |
| 2026-05-07 01:53 | 46.40466 | 20.05315 | 37953 ft | 435 kts | 177° |
| 2026-05-07 01:54 | 46.34486 | 20.06337 | 37953 ft | 436 kts | 177° |
| 2026-05-07 01:54 | 46.28460 | 20.07365 | 37954 ft | 436 kts | 177° |
| 2026-05-07 01:55 | 46.22420 | 20.08393 | 37957 ft | 436 kts | 177° |
| 2026-05-07 01:55 | 46.16407 | 20.09718 | 37961 ft | 440 kts | 171° |
| 2026-05-07 01:56 | 46.10584 | 20.12414 | 37961 ft | 444 kts | 163° |
| 2026-05-07 01:56 | 46.04781 | 20.15495 | 37957 ft | 444 kts | 164° |
| 2026-05-07 01:57 | 45.98972 | 20.18546 | 37960 ft | 445 kts | 164° |
| 2026-05-07 01:57 | 45.93147 | 20.21589 | 37963 ft | 445 kts | 164° |
| 2026-05-07 01:58 | 45.87323 | 20.24623 | 37967 ft | 446 kts | 164° |
| 2026-05-07 01:58 | 45.81473 | 20.27663 | 37969 ft | 447 kts | 164° |
| 2026-05-07 01:59 | 45.75621 | 20.30697 | 37962 ft | 447 kts | 164° |
| 2026-05-07 01:59 | 45.69761 | 20.33728 | 37964 ft | 448 kts | 164° |
| 2026-05-07 02:00 | 45.63896 | 20.36756 | 37971 ft | 448 kts | 164° |
| 2026-05-07 02:00 | 45.58023 | 20.39780 | 37975 ft | 449 kts | 164° |
| 2026-05-07 02:01 | 45.52127 | 20.42810 | 37966 ft | 450 kts | 164° |
| 2026-05-07 02:01 | 45.46277 | 20.45810 | 37971 ft | 450 kts | 164° |
| 2026-05-07 02:02 | 45.40380 | 20.48827 | 37976 ft | 450 kts | 164° |
| 2026-05-07 02:02 | 45.34478 | 20.51840 | 37970 ft | 451 kts | 164° |
| 2026-05-07 02:03 | 45.28572 | 20.54848 | 37977 ft | 450 kts | 164° |
| 2026-05-07 02:03 | 45.22680 | 20.57842 | 37977 ft | 450 kts | 164° |
| 2026-05-07 02:04 | 45.16783 | 20.60833 | 37983 ft | 450 kts | 164° |
| 2026-05-07 02:04 | 45.10912 | 20.63803 | 37982 ft | 450 kts | 164° |
| 2026-05-07 02:05 | 45.05014 | 20.66781 | 37979 ft | 449 kts | 164° |
| 2026-05-07 02:05 | 44.99125 | 20.69748 | 37980 ft | 449 kts | 164° |
| 2026-05-07 02:06 | 44.93232 | 20.72710 | 37977 ft | 449 kts | 165° |
| 2026-05-07 02:06 | 44.87379 | 20.75645 | 37981 ft | 449 kts | 165° |
| 2026-05-07 02:07 | 44.81477 | 20.78599 | 37982 ft | 449 kts | 165° |
| 2026-05-07 02:07 | 44.72633 | 20.83012 | 37980 ft | 449 kts | 165° |
| 2026-05-07 02:08 | 44.66733 | 20.85949 | 37985 ft | 450 kts | 165° |
| 2026-05-07 02:08 | 44.60832 | 20.88880 | 37985 ft | 451 kts | 165° |
| 2026-05-07 02:09 | 44.54910 | 20.91816 | 37987 ft | 451 kts | 165° |
| 2026-05-07 02:09 | 44.48980 | 20.94748 | 37997 ft | 452 kts | 165° |
| 2026-05-07 02:10 | 44.43046 | 20.97676 | 38003 ft | 452 kts | 165° |
| 2026-05-07 02:10 | 44.37146 | 21.00581 | 38011 ft | 453 kts | 165° |
| 2026-05-07 02:11 | 44.31197 | 21.03505 | 38007 ft | 453 kts | 165° |
| 2026-05-07 02:11 | 44.25239 | 21.06426 | 38014 ft | 454 kts | 165° |
| 2026-05-07 02:12 | 44.19275 | 21.09344 | 38012 ft | 454 kts | 165° |
| 2026-05-07 02:12 | 44.14313 | 21.11766 | 38016 ft | 454 kts | 165° |
| 2026-05-07 02:13 | 44.08350 | 21.14672 | 38016 ft | 454 kts | 165° |
| 2026-05-07 02:13 | 44.02389 | 21.17571 | 38020 ft | 454 kts | 165° |
| 2026-05-07 02:14 | 43.96423 | 21.20465 | 38021 ft | 454 kts | 165° |
| 2026-05-07 02:14 | 43.90468 | 21.23349 | 38022 ft | 453 kts | 165° |
| 2026-05-07 02:15 | 43.84505 | 21.26230 | 38025 ft | 454 kts | 165° |
| 2026-05-07 02:15 | 43.78545 | 21.29104 | 38030 ft | 453 kts | 165° |
| 2026-05-07 02:16 | 43.72612 | 21.31959 | 38027 ft | 453 kts | 165° |
| 2026-05-07 02:16 | 43.66659 | 21.34817 | 38011 ft | 453 kts | 165° |
| 2026-05-07 02:17 | 43.60715 | 21.37665 | 38013 ft | 452 kts | 165° |
| 2026-05-07 02:17 | 43.54769 | 21.40508 | 38021 ft | 452 kts | 165° |
| 2026-05-07 02:18 | 43.48823 | 21.43345 | 38027 ft | 452 kts | 165° |
| 2026-05-07 02:18 | 43.42873 | 21.46178 | 38026 ft | 451 kts | 165° |
| 2026-05-07 02:19 | 43.36978 | 21.48979 | 38024 ft | 450 kts | 165° |
| 2026-05-07 02:19 | 43.31054 | 21.51788 | 38027 ft | 450 kts | 165° |
| 2026-05-07 02:20 | 43.25088 | 21.54610 | 38017 ft | 451 kts | 165° |
| 2026-05-07 02:20 | 43.19190 | 21.57395 | 38024 ft | 451 kts | 165° |
| 2026-05-07 02:21 | 43.13244 | 21.60198 | 38029 ft | 451 kts | 165° |
| 2026-05-07 02:21 | 43.07301 | 21.62993 | 38029 ft | 451 kts | 165° |
| 2026-05-07 02:22 | 43.01348 | 21.65789 | 38032 ft | 452 kts | 165° |
| 2026-05-07 02:22 | 42.95427 | 21.68565 | 38037 ft | 453 kts | 165° |
| 2026-05-07 02:23 | 42.89465 | 21.71355 | 38047 ft | 453 kts | 165° |
| 2026-05-07 02:23 | 42.83492 | 21.74150 | 38048 ft | 454 kts | 164° |
| 2026-05-07 02:24 | 42.77516 | 21.76942 | 38051 ft | 454 kts | 164° |
| 2026-05-07 02:24 | 42.71542 | 21.79727 | 38050 ft | 454 kts | 164° |
| 2026-05-07 02:25 | 42.65574 | 21.82503 | 38054 ft | 453 kts | 164° |
| 2026-05-07 02:25 | 42.59604 | 21.85275 | 38053 ft | 453 kts | 164° |
| 2026-05-07 02:26 | 42.53627 | 21.88044 | 38054 ft | 453 kts | 164° |
| 2026-05-07 02:26 | 42.47677 | 21.90796 | 37625 ft | 450 kts | 164° |
| 2026-05-07 02:27 | 42.44718 | 21.92163 | 37028 ft | 449 kts | 165° |
| 2026-05-07 02:27 | 42.41752 | 21.93530 | 36307 ft | 451 kts | 165° |
| 2026-05-07 02:27 | 42.38819 | 21.94882 | 35585 ft | 452 kts | 165° |
| 2026-05-07 02:27 | 42.35834 | 21.96256 | 34866 ft | 453 kts | 165° |
| 2026-05-07 02:28 | 42.32840 | 21.97633 | 34141 ft | 455 kts | 166° |
| 2026-05-07 02:28 | 42.29825 | 21.99019 | 33309 ft | 457 kts | 166° |
| 2026-05-07 02:28 | 42.26803 | 22.00404 | 32507 ft | 459 kts | 165° |
| 2026-05-07 02:28 | 42.23775 | 22.01791 | 31667 ft | 461 kts | 165° |
| 2026-05-07 02:29 | 42.20727 | 22.03186 | 30852 ft | 463 kts | 165° |
| 2026-05-07 02:29 | 42.17682 | 22.04580 | 30309 ft | 460 kts | 165° |
| 2026-05-07 02:29 | 42.14642 | 22.05971 | 30110 ft | 462 kts | 165° |
| 2026-05-07 02:29 | 42.11588 | 22.07364 | 30057 ft | 465 kts | 165° |
| 2026-05-07 02:30 | 42.05497 | 22.10141 | 30051 ft | 464 kts | 165° |
| 2026-05-07 02:30 | 41.99371 | 22.12929 | 30035 ft | 465 kts | 165° |
| 2026-05-07 02:31 | 41.96302 | 22.14323 | 29784 ft | 464 kts | 165° |
| 2026-05-07 02:31 | 41.93249 | 22.15709 | 29498 ft | 461 kts | 165° |
| 2026-05-07 02:31 | 41.90219 | 22.17084 | 29225 ft | 459 kts | 165° |
| 2026-05-07 02:31 | 41.87195 | 22.18453 | 28952 ft | 457 kts | 165° |
| 2026-05-07 02:32 | 41.84217 | 22.19800 | 28684 ft | 455 kts | 165° |
| 2026-05-07 02:32 | 41.81186 | 22.21169 | 28405 ft | 453 kts | 165° |
| 2026-05-07 02:32 | 41.78205 | 22.22514 | 28145 ft | 451 kts | 165° |
| 2026-05-07 02:32 | 41.75229 | 22.23856 | 27879 ft | 449 kts | 165° |
| 2026-05-07 02:33 | 41.72304 | 22.25173 | 27622 ft | 448 kts | 165° |
| 2026-05-07 02:33 | 41.69357 | 22.26500 | 27362 ft | 446 kts | 165° |
| 2026-05-07 02:33 | 41.66409 | 22.27825 | 27099 ft | 444 kts | 165° |
| 2026-05-07 02:33 | 41.63484 | 22.29140 | 26849 ft | 443 kts | 165° |
| 2026-05-07 02:34 | 41.60560 | 22.30452 | 26597 ft | 441 kts | 165° |
| 2026-05-07 02:34 | 41.57654 | 22.31755 | 26346 ft | 440 kts | 165° |
| 2026-05-07 02:34 | 41.54758 | 22.33052 | 26098 ft | 438 kts | 165° |
| 2026-05-07 02:34 | 41.51866 | 22.34347 | 25854 ft | 437 kts | 165° |
| 2026-05-07 02:35 | 41.48989 | 22.35633 | 25615 ft | 435 kts | 165° |
| 2026-05-07 02:35 | 41.46124 | 22.36913 | 25378 ft | 434 kts | 165° |
| 2026-05-07 02:35 | 41.43267 | 22.38188 | 25135 ft | 432 kts | 165° |
| 2026-05-07 02:35 | 41.40415 | 22.39460 | 24896 ft | 430 kts | 165° |
| 2026-05-07 02:36 | 41.37576 | 22.40725 | 24660 ft | 429 kts | 165° |
| 2026-05-07 02:36 | 41.34781 | 22.41969 | 24424 ft | 428 kts | 165° |
| 2026-05-07 02:36 | 41.31963 | 22.43222 | 24192 ft | 426 kts | 165° |
| 2026-05-07 02:36 | 41.29155 | 22.44469 | 23966 ft | 424 kts | 165° |
| 2026-05-07 02:37 | 41.26356 | 22.45712 | 23736 ft | 423 kts | 165° |
| 2026-05-07 02:37 | 41.23560 | 22.46952 | 23474 ft | 422 kts | 165° |
| 2026-05-07 02:37 | 41.20779 | 22.48184 | 23213 ft | 420 kts | 165° |
| 2026-05-07 02:37 | 41.18006 | 22.49411 | 22942 ft | 419 kts | 165° |
| 2026-05-07 02:38 | 41.15245 | 22.50633 | 22675 ft | 417 kts | 164° |
| 2026-05-07 02:38 | 41.13403 | 22.51453 | 22505 ft | 414 kts | 163° |
| 2026-05-07 02:38 | 41.10775 | 22.52902 | 22280 ft | 417 kts | 159° |
| 2026-05-07 02:39 | 41.08119 | 22.54476 | 22013 ft | 418 kts | 158° |
| 2026-05-07 02:39 | 41.05475 | 22.56046 | 21750 ft | 414 kts | 158° |
| 2026-05-07 02:39 | 41.02850 | 22.57601 | 21498 ft | 412 kts | 158° |
| 2026-05-07 02:39 | 41.00236 | 22.59146 | 21240 ft | 411 kts | 158° |
| 2026-05-07 02:40 | 40.97614 | 22.60692 | 20992 ft | 411 kts | 158° |
| 2026-05-07 02:40 | 40.95008 | 22.62225 | 20735 ft | 409 kts | 158° |
| 2026-05-07 02:40 | 40.92407 | 22.63754 | 20485 ft | 408 kts | 158° |
| 2026-05-07 02:40 | 40.89813 | 22.65278 | 20244 ft | 406 kts | 158° |
| 2026-05-07 02:41 | 40.87232 | 22.66793 | 20093 ft | 404 kts | 158° |
| 2026-05-07 02:41 | 40.84657 | 22.68303 | 20059 ft | 405 kts | 158° |
| 2026-05-07 02:41 | 40.82115 | 22.69792 | 20048 ft | 406 kts | 158° |
| 2026-05-07 02:41 | 40.79529 | 22.71305 | 19850 ft | 406 kts | 158° |
| 2026-05-07 02:42 | 40.76954 | 22.72812 | 19609 ft | 403 kts | 158° |
| 2026-05-07 02:42 | 40.74392 | 22.74309 | 19374 ft | 401 kts | 158° |
| 2026-05-07 02:42 | 40.71841 | 22.75799 | 19149 ft | 400 kts | 158° |
| 2026-05-07 02:42 | 40.69293 | 22.77286 | 18909 ft | 399 kts | 158° |
| 2026-05-07 02:43 | 40.66754 | 22.78765 | 18676 ft | 398 kts | 158° |
| 2026-05-07 02:43 | 40.64224 | 22.80239 | 18447 ft | 397 kts | 158° |
| 2026-05-07 02:43 | 40.61726 | 22.81692 | 18196 ft | 396 kts | 158° |
| 2026-05-07 02:43 | 40.59220 | 22.83150 | 18074 ft | 392 kts | 158° |
| 2026-05-07 02:44 | 40.56715 | 22.84606 | 18074 ft | 394 kts | 158° |
| 2026-05-07 02:44 | 40.54203 | 22.86064 | 18073 ft | 395 kts | 158° |
| 2026-05-07 02:44 | 40.51689 | 22.87522 | 18076 ft | 395 kts | 158° |
| 2026-05-07 02:44 | 40.49177 | 22.88978 | 18077 ft | 395 kts | 158° |
| 2026-05-07 02:45 | 40.46661 | 22.90436 | 18073 ft | 395 kts | 158° |
| 2026-05-07 02:45 | 40.44142 | 22.91894 | 18057 ft | 395 kts | 158° |
| 2026-05-07 02:45 | 40.41621 | 22.93351 | 17828 ft | 395 kts | 158° |
| 2026-05-07 02:45 | 40.39107 | 22.94804 | 17563 ft | 391 kts | 158° |
| 2026-05-07 02:46 | 40.36626 | 22.96236 | 17317 ft | 389 kts | 158° |
| 2026-05-07 02:46 | 40.34181 | 22.97647 | 17057 ft | 388 kts | 158° |
| 2026-05-07 02:46 | 40.31717 | 22.99067 | 16787 ft | 386 kts | 158° |
| 2026-05-07 02:46 | 40.29260 | 23.00482 | 16535 ft | 385 kts | 158° |
| 2026-05-07 02:47 | 40.26814 | 23.01889 | 16279 ft | 383 kts | 158° |
| 2026-05-07 02:47 | 40.24386 | 23.03286 | 16027 ft | 381 kts | 158° |
| 2026-05-07 02:47 | 40.21957 | 23.04681 | 15767 ft | 380 kts | 158° |
| 2026-05-07 02:47 | 40.19541 | 23.06068 | 15531 ft | 378 kts | 158° |
| 2026-05-07 02:48 | 40.17132 | 23.07449 | 15285 ft | 377 kts | 158° |
| 2026-05-07 02:48 | 40.14737 | 23.08822 | 15043 ft | 375 kts | 158° |
| 2026-05-07 02:48 | 40.12352 | 23.10188 | 14802 ft | 373 kts | 158° |
| 2026-05-07 02:48 | 40.09974 | 23.11549 | 14562 ft | 372 kts | 158° |
| 2026-05-07 02:49 | 40.07608 | 23.12903 | 14328 ft | 371 kts | 158° |
| 2026-05-07 02:49 | 40.05245 | 23.14253 | 14090 ft | 369 kts | 158° |
| 2026-05-07 02:49 | 40.02898 | 23.15594 | 13854 ft | 368 kts | 158° |
| 2026-05-07 02:49 | 40.00563 | 23.16926 | 13593 ft | 366 kts | 158° |
| 2026-05-07 02:50 | 39.98237 | 23.18252 | 13327 ft | 364 kts | 158° |
| 2026-05-07 02:50 | 39.95943 | 23.19559 | 13069 ft | 362 kts | 158° |
| 2026-05-07 02:50 | 39.93638 | 23.20871 | 12811 ft | 360 kts | 158° |
| 2026-05-07 02:50 | 39.91346 | 23.22175 | 12553 ft | 358 kts | 158° |
| 2026-05-07 02:51 | 39.89063 | 23.23472 | 12293 ft | 356 kts | 158° |
| 2026-05-07 02:51 | 39.86794 | 23.24762 | 12049 ft | 355 kts | 158° |
| 2026-05-07 02:51 | 39.84538 | 23.26042 | 11806 ft | 353 kts | 158° |
| 2026-05-07 02:51 | 39.82293 | 23.27315 | 11551 ft | 351 kts | 158° |
| 2026-05-07 02:52 | 39.80054 | 23.28584 | 11305 ft | 349 kts | 158° |
| 2026-05-07 02:52 | 39.77832 | 23.29843 | 11060 ft | 348 kts | 158° |
| 2026-05-07 02:52 | 39.75645 | 23.31081 | 10821 ft | 346 kts | 158° |
| 2026-05-07 02:52 | 39.73442 | 23.32327 | 10576 ft | 344 kts | 158° |
| 2026-05-07 02:53 | 39.71271 | 23.33555 | 10464 ft | 335 kts | 158° |
| 2026-05-07 02:53 | 39.69173 | 23.34741 | 10346 ft | 322 kts | 158° |
| 2026-05-07 02:53 | 39.67159 | 23.35880 | 10227 ft | 309 kts | 158° |
| 2026-05-07 02:53 | 39.65214 | 23.36977 | 10033 ft | 300 kts | 158° |
| 2026-05-07 02:54 | 39.63319 | 23.38045 | 9785 ft | 293 kts | 158° |
| 2026-05-07 02:54 | 39.61460 | 23.39092 | 9657 ft | 292 kts | 158° |
| 2026-05-07 02:54 | 39.59592 | 23.40142 | 9520 ft | 293 kts | 158° |
| 2026-05-07 02:54 | 39.57729 | 23.41190 | 9393 ft | 291 kts | 158° |
| 2026-05-07 02:55 | 39.56502 | 23.41880 | 9314 ft | 290 kts | 158° |
| 2026-05-07 02:55 | 39.54652 | 23.42920 | 9171 ft | 290 kts | 158° |
| 2026-05-07 02:55 | 39.52805 | 23.43958 | 9048 ft | 289 kts | 158° |
| 2026-05-07 02:55 | 39.50961 | 23.44993 | 8917 ft | 288 kts | 158° |
| 2026-05-07 02:56 | 39.49124 | 23.46025 | 8788 ft | 287 kts | 158° |
| 2026-05-07 02:56 | 39.47289 | 23.47054 | 8665 ft | 286 kts | 158° |
| 2026-05-07 02:56 | 39.45462 | 23.48079 | 8536 ft | 286 kts | 158° |
| 2026-05-07 02:56 | 39.43641 | 23.49100 | 8406 ft | 285 kts | 158° |
| 2026-05-07 02:57 | 39.41821 | 23.50118 | 8279 ft | 284 kts | 158° |
| 2026-05-07 02:57 | 39.39972 | 23.51016 | 8156 ft | 283 kts | 160° |
| 2026-05-07 02:57 | 39.38151 | 23.51893 | 8032 ft | 282 kts | 160° |
| 2026-05-07 02:57 | 39.36313 | 23.52784 | 7848 ft | 281 kts | 160° |
| 2026-05-07 02:58 | 39.34480 | 23.53673 | 7481 ft | 281 kts | 160° |
| 2026-05-07 02:58 | 39.32649 | 23.54560 | 7116 ft | 280 kts | 160° |
| 2026-05-07 02:58 | 39.30831 | 23.55438 | 6751 ft | 278 kts | 160° |
| 2026-05-07 02:58 | 39.29028 | 23.56309 | 6372 ft | 277 kts | 160° |
| 2026-05-07 02:59 | 39.27225 | 23.57179 | 6000 ft | 275 kts | 160° |
| 2026-05-07 02:59 | 39.25434 | 23.58042 | 5616 ft | 273 kts | 160° |
| 2026-05-07 02:59 | 39.23660 | 23.58897 | 5253 ft | 271 kts | 160° |
| 2026-05-07 02:59 | 39.21920 | 23.59734 | 4892 ft | 270 kts | 160° |
| 2026-05-07 03:00 | 39.20145 | 23.60588 | 4480 ft | 269 kts | 160° |
| 2026-05-07 03:00 | 39.18373 | 23.61132 | 4151 ft | 264 kts | 180° |
| 2026-05-07 03:00 | 39.16612 | 23.60644 | 4044 ft | 262 kts | 205° |
| 2026-05-07 03:00 | 39.14980 | 23.59583 | 4033 ft | 263 kts | 207° |
| 2026-05-07 03:01 | 39.13354 | 23.58513 | 4034 ft | 262 kts | 207° |
| 2026-05-07 03:01 | 39.11725 | 23.57444 | 3978 ft | 263 kts | 207° |
| 2026-05-07 03:01 | 39.10088 | 23.56374 | 3690 ft | 265 kts | 207° |
| 2026-05-07 03:01 | 39.08423 | 23.55286 | 3334 ft | 264 kts | 207° |
| 2026-05-07 03:02 | 39.06801 | 23.54229 | 3052 ft | 259 kts | 207° |
| 2026-05-07 03:02 | 39.05224 | 23.53202 | 2819 ft | 255 kts | 207° |
| 2026-05-07 03:02 | 39.03623 | 23.52160 | 2651 ft | 258 kts | 207° |
| 2026-05-07 03:02 | 39.02076 | 23.51025 | 2463 ft | 255 kts | 220° |
| 2026-05-07 03:03 | 39.01039 | 23.49205 | 2293 ft | 256 kts | 249° |
| 2026-05-07 03:03 | 39.00819 | 23.46957 | 2119 ft | 257 kts | 277° |
| 2026-05-07 03:03 | 39.01492 | 23.44843 | 2042 ft | 259 kts | 307° |
| 2026-05-07 03:03 | 39.02897 | 23.43406 | 2034 ft | 262 kts | 336° |
| 2026-05-07 03:04 | 39.04690 | 23.43000 | 2035 ft | 265 kts | 5° |
| 2026-05-07 03:04 | 39.06427 | 23.43743 | 2033 ft | 266 kts | 33° |
| 2026-05-07 03:04 | 39.07848 | 23.45280 | 2026 ft | 267 kts | 39° |
| 2026-05-07 03:04 | 39.09337 | 23.46718 | 1796 ft | 266 kts | 33° |
| 2026-05-07 03:05 | 39.10927 | 23.47848 | 1291 ft | 257 kts | 23° |
| 2026-05-07 03:05 | 39.12615 | 23.48652 | 1232 ft | 261 kts | 17° |
| 2026-05-07 03:05 | 39.14322 | 23.49167 | 1076 ft | 241 kts | 12° |
| 2026-05-07 03:05 | 39.15904 | 23.49624 | 786 ft | 229 kts | 12° |
| 2026-05-07 03:06 | 39.17576 | 23.50111 | 506 ft | 254 kts | 12° |
| 2026-05-07 03:06 | 39.19211 | 23.50711 | 1151 ft | 237 kts | 17° |
| 2026-05-07 03:06 | 39.20863 | 23.51277 | 1886 ft | 258 kts | 11° |
| 2026-05-07 03:06 | 39.22659 | 23.51720 | 2117 ft | 264 kts | 9° |
| 2026-05-07 03:07 | 39.24474 | 23.52134 | 2340 ft | 266 kts | 9° |
| 2026-05-07 03:07 | 39.26284 | 23.52584 | 2563 ft | 263 kts | 14° |
| 2026-05-07 03:07 | 39.27825 | 23.53635 | 2760 ft | 240 kts | 43° |
| 2026-05-07 03:07 | 39.28717 | 23.55275 | 2950 ft | 215 kts | 69° |
| 2026-05-07 03:08 | 39.29006 | 23.57136 | 2933 ft | 213 kts | 93° |
| 2026-05-07 03:08 | 39.28695 | 23.58980 | 3013 ft | 210 kts | 117° |
| 2026-05-07 03:08 | 39.27865 | 23.60508 | 3034 ft | 208 kts | 140° |
| 2026-05-07 03:08 | 39.26653 | 23.61491 | 3036 ft | 206 kts | 162° |
| 2026-05-07 03:09 | 39.25257 | 23.61797 | 3038 ft | 204 kts | 183° |
| 2026-05-07 03:09 | 39.23833 | 23.61727 | 3038 ft | 204 kts | 183° |
| 2026-05-07 03:09 | 39.22416 | 23.61677 | 3033 ft | 203 kts | 182° |
| 2026-05-07 03:09 | 39.21001 | 23.61640 | 3037 ft | 204 kts | 182° |
| 2026-05-07 03:10 | 39.19580 | 23.61606 | 3032 ft | 204 kts | 182° |
| 2026-05-07 03:10 | 39.18164 | 23.61575 | 3033 ft | 201 kts | 182° |
| 2026-05-07 03:10 | 39.16779 | 23.61747 | 3044 ft | 208 kts | 163° |
| 2026-05-07 03:10 | 39.15207 | 23.62102 | 3046 ft | 251 kts | 186° |
| 2026-05-07 03:11 | 39.13536 | 23.61384 | 3038 ft | 257 kts | 214° |
| 2026-05-07 03:11 | 39.12294 | 23.59747 | 2997 ft | 256 kts | 235° |
| 2026-05-07 03:11 | 39.11390 | 23.57766 | 2672 ft | 259 kts | 243° |
| 2026-05-07 03:11 | 39.10585 | 23.55674 | 2275 ft | 260 kts | 244° |
| 2026-05-07 03:12 | 39.09836 | 23.53592 | 2078 ft | 252 kts | 246° |
| 2026-05-07 03:12 | 39.09093 | 23.51528 | 2034 ft | 257 kts | 249° |
| 2026-05-07 03:12 | 39.08860 | 23.49279 | 1860 ft | 254 kts | 277° |
| 2026-05-07 03:12 | 39.09485 | 23.47273 | 1638 ft | 234 kts | 308° |
| 2026-05-07 03:13 | 39.10721 | 23.46112 | 1441 ft | 213 kts | 342° |
| 2026-05-07 03:13 | 39.12115 | 23.46082 | 1266 ft | 194 kts | 20° |
| 2026-05-07 03:13 | 39.13126 | 23.47030 | 1191 ft | 169 kts | 47° |
| 2026-05-07 03:13 | 39.13897 | 23.48057 | 981 ft | 152 kts | 42° |
| 2026-05-07 03:14 | 39.14743 | 23.48889 | 803 ft | 158 kts | 35° |
| 2026-05-07 03:14 | 39.15708 | 23.49482 | 394 ft | 157 kts | 15° |
| 2026-05-07 03:14 | 39.17611 | 23.50311 | 38 ft | 118 kts | 20° |
| 2026-05-07 03:15 | 39.18228 | 23.50582 | 53 ft | 69 kts | 20° |
| 2026-05-07 03:15 | 39.18339 | 23.50644 | 53 ft | 6 kts | 27° |
| 2026-05-07 03:15 | 39.18407 | 23.50680 | 57 ft | 4 kts | 354° |
| 2026-05-07 03:15 | 39.18406 | 23.50663 | 52 ft | 4 kts | 258° |
| 2026-05-07 03:16 | 39.18338 | 23.50626 | 51 ft | 18 kts | 193° |
| 2026-05-07 03:16 | 39.18192 | 23.50568 | 51 ft | 25 kts | 195° |
| 2026-05-07 03:16 | 39.18009 | 23.50483 | 44 ft | 30 kts | 195° |
| 2026-05-07 03:16 | 39.17813 | 23.50398 | 40 ft | 28 kts | 198° |
| 2026-05-07 03:17 | 39.17716 | 23.50314 | 39 ft | 17 kts | 245° |
| 2026-05-07 03:17 | 39.17672 | 23.50241 | 36 ft | 9 kts | 205° |
| 2026-05-07 03:17 | 39.17665 | 23.50190 | 35 ft | 2 kts | 309° |
| 2026-05-07 03:17 | 39.17668 | 23.50186 | 35 ft | 0 kts | 313° |
| 2026-05-07 03:18 | 39.17682 | 23.50182 | 35 ft | 6 kts | 349° |
| 2026-05-07 03:18 | 39.17692 | 23.50184 | 35 ft | 3 kts | 9° |
| 2026-05-07 03:19 | 39.17700 | 23.50202 | 36 ft | 2 kts | 88° |
| 2026-05-07 03:19 | 39.17700 | 23.50208 | 36 ft | 0 kts | 90° |
| 2026-05-07 03:19 | 39.17676 | 23.50199 | 35 ft | 2 kts | 290° |
| 2026-05-07 03:23 | 39.11252 | 23.57420 | 2598 ft | 260 kts | 243° |
| 2026-05-07 03:24 | 39.16948 | 23.50019 | 55 ft | 143 kts | 18° |
| 2026-05-07 03:24 | 39.17790 | 23.50393 | 40 ft | 106 kts | 18° |
| 2026-05-07 03:24 | 39.16118 | 23.49648 | 240 ft | 155 kts | 19° |
| 2026-05-07 03:24 | 39.17086 | 23.50079 | 25 ft | 142 kts | 18° |
| 2026-05-07 03:25 | 39.17890 | 23.50436 | 41 ft | 99 kts | 18° |
| 2026-05-07 03:25 | 39.16254 | 23.49709 | 230 ft | 151 kts | 18° |
| 2026-05-07 03:25 | 39.17213 | 23.50135 | 30 ft | 137 kts | 19° |
| 2026-05-07 03:25 | 39.17570 | 23.50292 | 35 ft | 121 kts | 20° |